createdAt,value
2022-11-23T00:01:29.995Z,1.35
2022-11-23T00:03:58.337Z,1.36
2022-11-23T00:06:25.378Z,1.35
2022-11-23T00:08:52.783Z,1.40
2022-11-23T00:11:21.257Z,1.37
2022-11-23T00:13:48.110Z,1.37
2022-11-23T00:16:17.612Z,1.47
2022-11-23T00:18:44.748Z,1.56
2022-11-23T00:21:16.253Z,1.57
2022-11-23T00:23:43.421Z,1.49
2022-11-23T00:26:10.195Z,1.47
2022-11-23T00:28:39.711Z,1.82
2022-11-23T00:31:20.531Z,1.62
2022-11-23T00:33:54.034Z,1.53
2022-11-23T00:36:21.996Z,1.40
2022-11-23T00:38:49.667Z,1.42
2022-11-23T00:41:19.457Z,1.46
2022-11-23T00:43:46.061Z,1.62
2022-11-23T00:46:15.254Z,1.44
2022-11-23T00:48:46.817Z,1.53
2022-11-23T00:51:16.419Z,1.38
2022-11-23T00:53:43.246Z,1.60
2022-11-23T00:56:10.217Z,1.42
2022-11-23T00:58:40.038Z,1.57
2022-11-23T01:01:14.959Z,1.46
2022-11-23T01:03:46.974Z,1.40
2022-11-23T01:06:18.687Z,1.32
2022-11-23T01:08:53.182Z,1.44
2022-11-23T01:11:20.755Z,1.62
2022-11-23T01:13:47.786Z,1.46
2022-11-23T01:16:24.049Z,1.36
2022-11-23T01:18:58.821Z,1.63
2022-11-23T01:21:26.451Z,1.45
2022-11-23T01:23:53.375Z,1.50
2022-11-23T01:26:19.899Z,1.38
2022-11-23T01:28:46.464Z,1.40
2022-11-23T01:31:17.863Z,1.32
2022-11-23T01:33:44.886Z,1.41
2022-11-23T01:36:16.899Z,1.40
2022-11-23T01:38:43.688Z,1.42
2022-11-23T01:41:14.285Z,1.53
2022-11-23T01:43:41.117Z,1.61
2022-11-23T01:46:08.107Z,1.70
2022-11-23T01:48:38.209Z,1.93
2022-11-23T01:51:39.464Z,1.88
2022-11-23T01:54:17.104Z,1.85
2022-11-23T01:56:48.286Z,1.85
2022-11-23T01:59:16.986Z,1.82
2022-11-23T02:01:43.925Z,2.00
2022-11-23T02:04:14.716Z,1.82
2022-11-23T02:06:42.929Z,1.78
2022-11-23T02:09:09.369Z,1.84
2022-11-23T02:11:35.790Z,1.87
2022-11-23T02:14:02.226Z,1.87
2022-11-23T02:16:29.155Z,1.85
2022-11-23T02:18:55.650Z,1.82
2022-11-23T02:21:22.857Z,1.79
2022-11-23T02:24:17.739Z,1.79
2022-11-23T02:26:44.314Z,1.89
2022-11-23T02:29:18.415Z,1.96
2022-11-23T02:31:44.829Z,1.95
2022-11-23T02:34:11.603Z,1.94
2022-11-23T02:36:43.966Z,1.95
2022-11-23T02:39:32.687Z,2.04
2022-11-23T02:42:00.486Z,1.82
2022-11-23T02:44:49.141Z,1.76
2022-11-23T02:47:15.948Z,1.78
2022-11-23T02:49:45.790Z,2.04
2022-11-23T02:52:13.346Z,2.01
2022-11-23T02:54:39.762Z,2.04
2022-11-23T02:57:06.414Z,1.95
2022-11-23T02:59:34.106Z,1.95
2022-11-23T03:02:02.647Z,2.03
2022-11-23T03:04:28.955Z,2.01
2022-11-23T03:06:55.747Z,2.11
2022-11-23T03:09:22.701Z,2.08
2022-11-23T03:11:49.317Z,1.98
2022-11-23T03:14:16.166Z,2.19
2022-11-23T03:16:42.566Z,2.22
2022-11-23T03:19:08.980Z,2.46
2022-11-23T03:21:35.387Z,2.22
2022-11-23T03:24:01.802Z,2.08
2022-11-23T03:26:28.216Z,2.21
2022-11-23T03:28:54.635Z,2.27
2022-11-23T03:31:21.458Z,2.21
2022-11-23T03:33:47.967Z,2.28
2022-11-23T03:36:14.393Z,2.30
2022-11-23T03:38:40.966Z,2.35
2022-11-23T03:41:07.342Z,2.29
2022-11-23T03:43:33.743Z,2.22
2022-11-23T03:46:00.177Z,2.13
2022-11-23T03:48:26.646Z,2.16
2022-11-23T03:50:53.091Z,2.07
2022-11-23T03:53:19.548Z,2.11
2022-11-23T03:55:47.039Z,2.28
2022-11-23T03:58:13.584Z,2.30
2022-11-23T04:00:40.097Z,2.18
2022-11-23T04:03:06.907Z,2.29
2022-11-23T04:05:33.329Z,2.30
2022-11-23T04:07:59.811Z,2.37
2022-11-23T04:10:26.493Z,2.29
2022-11-23T04:12:53.399Z,2.18
2022-11-23T04:15:20.741Z,2.14
2022-11-23T04:17:47.325Z,2.42
2022-11-23T04:20:14.078Z,2.39
2022-11-23T04:22:40.806Z,2.34
2022-11-23T04:25:07.557Z,2.50
2022-11-23T04:27:33.974Z,2.35
2022-11-23T04:30:00.429Z,2.38
2022-11-23T04:32:26.844Z,2.55
2022-11-23T04:34:53.241Z,2.45
2022-11-23T04:37:19.669Z,2.60
2022-11-23T04:39:46.070Z,2.58
2022-11-23T04:42:12.714Z,2.55
2022-11-23T04:44:39.278Z,2.66
2022-11-23T04:47:05.740Z,2.49
2022-11-23T04:49:32.549Z,2.52
2022-11-23T04:51:59.273Z,2.53
2022-11-23T04:54:25.692Z,2.65
2022-11-23T04:56:54.137Z,2.62
2022-11-23T04:59:20.989Z,2.65
2022-11-23T05:01:47.374Z,2.46
2022-11-23T05:04:17.766Z,2.56
2022-11-23T05:06:45.000Z,2.61
2022-11-23T05:09:12.069Z,2.55
2022-11-23T05:11:38.604Z,2.70
2022-11-23T05:14:05.195Z,2.56
2022-11-23T05:16:31.635Z,2.62
2022-11-23T05:18:58.067Z,2.62
2022-11-23T05:21:24.617Z,2.81
2022-11-23T05:23:51.005Z,2.90
2022-11-23T05:26:17.554Z,2.89
2022-11-23T05:28:44.000Z,2.96
2022-11-23T05:31:10.614Z,2.85
2022-11-23T05:33:37.180Z,2.83
2022-11-23T05:36:03.902Z,2.89
2022-11-23T05:38:30.319Z,2.89
2022-11-23T05:40:56.925Z,3.02
2022-11-23T05:43:23.670Z,3.07
2022-11-23T05:45:50.142Z,3.00
2022-11-23T05:48:16.748Z,3.03
2022-11-23T05:50:43.200Z,3.16
2022-11-23T05:53:10.166Z,3.07
2022-11-23T05:55:36.687Z,3.21
2022-11-23T05:58:03.809Z,3.24
2022-11-23T06:00:30.352Z,3.33
2022-11-23T06:03:03.595Z,3.28
2022-11-23T06:05:30.764Z,3.19
2022-11-23T06:07:57.325Z,3.19
2022-11-23T06:10:23.885Z,3.31
2022-11-23T06:12:50.385Z,3.48
2022-11-23T06:15:17.029Z,3.27
2022-11-23T06:17:43.532Z,3.17
2022-11-23T06:20:10.242Z,3.04
2022-11-23T06:22:36.649Z,3.08
2022-11-23T06:25:03.158Z,3.04
2022-11-23T06:27:29.603Z,3.12
2022-11-23T06:29:56.117Z,3.22
2022-11-23T06:32:22.515Z,3.11
2022-11-23T06:34:48.938Z,3.08
2022-11-23T06:37:15.477Z,3.03
2022-11-23T06:39:41.949Z,3.01
2022-11-23T06:42:36.622Z,3.14
2022-11-23T06:44:54.811Z,3.00
2022-11-23T06:47:26.053Z,3.01
2022-11-23T06:49:53.222Z,3.01
2022-11-23T06:52:19.935Z,3.11
2022-11-23T06:54:47.372Z,3.19
2022-11-23T06:57:13.902Z,3.09
2022-11-23T06:59:44.574Z,3.20
2022-11-23T07:02:12.172Z,3.14
2022-11-23T07:04:38.706Z,3.17
2022-11-23T07:07:05.218Z,3.24
2022-11-23T07:09:32.021Z,3.28
2022-11-23T07:11:58.652Z,3.20
2022-11-23T07:14:25.104Z,3.39
2022-11-23T07:16:51.783Z,3.54
2022-11-23T07:19:18.193Z,3.41
2022-11-23T07:21:45.406Z,3.48
2022-11-23T07:24:11.984Z,3.46
2022-11-23T07:26:38.389Z,3.37
2022-11-23T07:29:04.828Z,3.50
2022-11-23T07:31:31.517Z,3.60
2022-11-23T07:33:57.932Z,3.57
2022-11-23T07:36:24.719Z,3.55
2022-11-23T07:38:51.135Z,3.74
2022-11-23T07:41:17.554Z,3.71
2022-11-23T07:43:44.171Z,3.68
2022-11-23T07:46:10.887Z,3.66
2022-11-23T07:48:37.399Z,3.72
2022-11-23T07:51:03.948Z,3.64
2022-11-23T07:53:30.386Z,3.67
2022-11-23T07:55:58.619Z,3.86
2022-11-23T07:58:25.633Z,3.91
2022-11-23T08:00:52.125Z,3.75
2022-11-23T08:03:27.637Z,3.92
2022-11-23T08:05:54.566Z,3.94
2022-11-23T08:08:21.194Z,3.83
2022-11-23T08:10:53.034Z,3.81
2022-11-23T08:13:21.624Z,3.74
2022-11-23T08:15:53.758Z,3.70
2022-11-23T08:18:21.229Z,3.93
2022-11-23T08:20:47.842Z,3.95
2022-11-23T08:23:14.263Z,3.91
2022-11-23T08:25:40.960Z,3.86
2022-11-23T08:28:07.691Z,4.16
2022-11-23T08:30:34.871Z,4.13
2022-11-23T08:33:08.669Z,4.07
2022-11-23T08:35:40.015Z,4.19
2022-11-23T08:38:08.148Z,4.05
2022-11-23T08:40:35.575Z,4.07
2022-11-23T08:43:02.220Z,4.17
2022-11-23T08:45:29.258Z,4.23
2022-11-23T08:48:00.861Z,4.19
2022-11-23T08:50:29.202Z,4.09
2022-11-23T08:52:59.179Z,4.20
2022-11-23T08:55:26.805Z,4.30
2022-11-23T08:58:00.433Z,4.32
2022-11-23T09:00:27.778Z,4.40
2022-11-23T09:02:54.815Z,4.44
2022-11-23T09:05:21.750Z,4.34
2022-11-23T09:07:48.410Z,4.40
2022-11-23T09:10:18.807Z,4.45
2022-11-23T09:12:46.907Z,4.56
2022-11-23T09:15:13.537Z,4.68
2022-11-23T09:17:40.001Z,4.56
2022-11-23T09:20:07.579Z,4.53
2022-11-23T09:22:34.361Z,4.45
2022-11-23T09:25:01.125Z,4.33
2022-11-23T09:27:27.633Z,4.42
2022-11-23T09:29:54.073Z,4.48
2022-11-23T09:32:20.534Z,4.45
2022-11-23T09:34:47.081Z,4.52
2022-11-23T09:37:14.132Z,4.77
2022-11-23T09:39:40.667Z,4.77
2022-11-23T09:42:45.399Z,4.88
2022-11-23T09:45:19.845Z,4.95
2022-11-23T09:47:54.570Z,4.88
2022-11-23T09:50:28.236Z,5.10
2022-11-23T09:52:55.208Z,5.27
2022-11-23T09:55:36.882Z,5.19
2022-11-23T09:58:13.181Z,5.32
2022-11-23T10:00:57.299Z,5.65
2022-11-23T10:03:23.862Z,5.78
2022-11-23T10:06:06.884Z,6.30
2022-11-23T10:09:01.252Z,6.49
2022-11-23T10:11:55.737Z,6.19
2022-11-23T10:14:45.795Z,5.80
2022-11-23T10:17:29.135Z,6.01
2022-11-23T10:20:24.698Z,5.85
2022-11-23T10:23:02.413Z,6.19
2022-11-23T10:25:38.962Z,6.07
2022-11-23T10:28:15.823Z,6.48
2022-11-23T10:30:43.159Z,6.83
2022-11-23T10:33:22.440Z,6.32
2022-11-23T10:35:48.975Z,6.52
2022-11-23T10:38:19.699Z,6.28
2022-11-23T10:41:08.038Z,6.46
2022-11-23T10:44:01.641Z,6.28
2022-11-23T10:46:38.435Z,6.22
2022-11-23T10:49:20.402Z,6.04
2022-11-23T10:52:05.600Z,6.07
2022-11-23T10:54:47.175Z,6.14
2022-11-23T10:57:32.139Z,6.22
2022-11-23T11:00:02.610Z,6.24
2022-11-23T11:02:39.700Z,6.36
2022-11-23T11:08:19.941Z,6.18
2022-11-23T11:10:51.976Z,6.31
2022-11-23T11:13:41.709Z,6.49
2022-11-23T11:16:21.129Z,6.35
2022-11-23T11:18:47.912Z,6.49
2022-11-23T11:21:19.878Z,6.49
2022-11-23T11:23:54.776Z,6.74
2022-11-23T11:26:23.804Z,6.82
2022-11-23T11:28:55.642Z,6.73
2022-11-23T11:31:30.099Z,6.72
2022-11-23T11:34:18.246Z,6.85
2022-11-23T11:37:12.333Z,6.61
2022-11-23T11:39:47.755Z,6.88
2022-11-23T11:42:19.911Z,7.04
2022-11-23T11:44:49.889Z,7.10
2022-11-23T11:47:26.974Z,7.10
2022-11-23T11:49:59.586Z,7.39
2022-11-23T11:52:33.111Z,7.14
2022-11-23T11:55:11.635Z,7.41
2022-11-23T11:57:55.972Z,7.42
2022-11-23T12:00:22.702Z,7.00
2022-11-23T12:02:52.979Z,7.11
2022-11-23T12:05:22.671Z,7.07
2022-11-23T12:08:07.360Z,7.29
2022-11-23T12:10:43.215Z,7.32
2022-11-23T12:13:22.067Z,7.29
2022-11-23T12:16:03.606Z,7.39
2022-11-23T12:19:05.405Z,7.65
2022-11-23T12:22:01.813Z,8.07
2022-11-23T12:24:53.679Z,8.28
2022-11-23T12:27:52.958Z,8.39
2022-11-23T12:30:31.013Z,8.13
2022-11-23T12:33:18.475Z,8.41
2022-11-23T12:36:26.579Z,7.87
2022-11-23T12:39:30.777Z,7.76
2022-11-23T12:42:11.957Z,7.38
2022-11-23T12:44:57.237Z,7.25
2022-11-23T12:48:15.649Z,7.40
2022-11-23T12:50:52.662Z,7.70
2022-11-23T12:53:40.770Z,7.70
2022-11-23T12:56:13.475Z,8.08
2022-11-23T12:58:43.691Z,8.37
2022-11-23T13:01:26.375Z,8.44
2022-11-23T13:04:17.552Z,8.17
2022-11-23T13:10:02.564Z,7.90
2022-11-23T13:13:15.685Z,7.58
2022-11-23T13:15:45.554Z,7.40
2022-11-23T13:18:44.230Z,8.07
2022-11-23T13:21:14.092Z,7.91
2022-11-23T13:23:40.581Z,8.83
2022-11-23T13:26:24.497Z,8.62
2022-11-23T13:28:53.049Z,9.08
2022-11-23T13:31:21.164Z,9.37
2022-11-23T13:33:49.846Z,9.20
2022-11-23T13:37:10.468Z,8.64
2022-11-23T13:39:55.997Z,8.35
2022-11-23T13:42:23.198Z,7.92
2022-11-23T13:45:21.736Z,7.63
2022-11-23T13:48:19.436Z,7.49
2022-11-23T13:50:59.876Z,7.04
2022-11-23T13:53:35.549Z,7.19
2022-11-23T13:56:40.066Z,6.80
2022-11-23T13:59:27.678Z,6.78
2022-11-23T14:02:17.561Z,7.02
2022-11-23T14:04:46.836Z,7.05
2022-11-23T14:07:16.711Z,6.88
2022-11-23T14:09:54.465Z,6.88
2022-11-23T14:12:44.751Z,6.75
2022-11-23T14:15:19.815Z,6.56
2022-11-23T14:18:07.683Z,6.78
2022-11-23T14:20:55.498Z,6.51
2022-11-23T14:23:43.396Z,6.48
2022-11-23T14:26:33.948Z,6.29
2022-11-23T14:29:21.977Z,6.29
2022-11-23T14:32:07.219Z,6.43
2022-11-23T14:35:12.238Z,6.35
2022-11-23T14:38:13.882Z,6.39
2022-11-23T14:41:11.147Z,6.26
2022-11-23T14:43:41.635Z,6.12
2022-11-23T14:46:15.398Z,6.33
2022-11-23T14:48:41.866Z,6.24
2022-11-23T14:51:12.864Z,6.30
2022-11-23T14:54:00.945Z,6.32
2022-11-23T14:56:35.701Z,6.32
2022-11-23T14:59:09.363Z,6.18
2022-11-23T15:01:37.114Z,6.13
2022-11-23T15:04:10.366Z,6.17
2022-11-23T15:06:45.783Z,6.28
2022-11-23T15:09:12.457Z,5.94
2022-11-23T15:11:39.016Z,5.92
2022-11-23T15:14:18.828Z,5.76
2022-11-23T15:16:45.390Z,5.67
2022-11-23T15:19:29.407Z,5.74
2022-11-23T15:21:56.946Z,5.64
2022-11-23T15:24:25.930Z,5.75
2022-11-23T15:26:53.432Z,5.78
2022-11-23T15:29:36.600Z,5.68
2022-11-23T15:32:35.783Z,5.83
2022-11-23T15:35:10.275Z,5.75
2022-11-23T15:37:44.140Z,5.70
2022-11-23T15:40:18.659Z,5.52
2022-11-23T15:42:48.052Z,5.66
2022-11-23T15:45:37.266Z,5.48
2022-11-23T15:48:14.867Z,5.49
2022-11-23T15:50:56.542Z,5.28
2022-11-23T15:53:32.734Z,5.18
2022-11-23T15:56:06.917Z,5.36
2022-11-23T15:58:35.204Z,5.43
2022-11-23T16:01:13.387Z,5.46
2022-11-23T16:03:39.841Z,5.32
2022-11-23T16:06:15.700Z,5.49
2022-11-23T16:08:42.119Z,5.43
2022-11-23T16:11:29.741Z,5.33
2022-11-23T16:14:17.098Z,5.26
2022-11-23T16:16:46.254Z,5.38
2022-11-23T16:19:27.113Z,5.33
2022-11-23T16:22:01.952Z,5.38
2022-11-23T16:24:31.548Z,5.42
2022-11-23T16:26:58.403Z,5.43
2022-11-23T16:29:28.327Z,5.43
2022-11-23T16:32:02.862Z,5.59
2022-11-23T16:34:29.516Z,5.49
2022-11-23T16:36:56.452Z,5.51
2022-11-23T16:39:24.106Z,5.49
2022-11-23T16:41:51.573Z,5.63
2022-11-23T16:44:18.855Z,5.67
2022-11-23T16:46:47.520Z,5.73
2022-11-23T16:49:17.771Z,5.61
2022-11-23T16:51:45.542Z,5.48
2022-11-23T16:54:14.037Z,5.67
2022-11-23T16:56:41.938Z,5.64
2022-11-23T16:59:16.609Z,5.67
2022-11-23T17:01:45.844Z,5.76
2022-11-23T17:04:15.262Z,5.70
2022-11-23T17:06:43.097Z,5.80
2022-11-23T17:09:10.428Z,5.67
2022-11-23T17:11:42.028Z,5.54
2022-11-23T17:14:18.477Z,5.80
2022-11-23T17:16:45.724Z,5.65
2022-11-23T17:19:17.336Z,5.78
2022-11-23T17:21:44.969Z,5.77
2022-11-23T17:24:12.754Z,5.87
2022-11-23T17:26:45.268Z,5.68
2022-11-23T17:29:19.650Z,5.65
2022-11-23T17:31:47.411Z,5.67
2022-11-23T17:34:14.473Z,5.57
2022-11-23T17:36:42.763Z,5.53
2022-11-23T17:39:15.620Z,5.48
2022-11-23T17:41:42.019Z,5.34
2022-11-23T17:44:09.326Z,5.19
2022-11-23T17:46:35.916Z,5.23
2022-11-23T17:49:02.547Z,5.33
2022-11-23T17:51:29.526Z,5.20
2022-11-23T17:53:56.101Z,5.25
2022-11-23T17:56:25.780Z,5.12
2022-11-23T17:58:52.798Z,5.11
2022-11-23T18:01:21.344Z,5.02
2022-11-23T18:03:48.039Z,5.04
2022-11-23T18:06:15.498Z,5.07
2022-11-23T18:08:43.675Z,5.11
2022-11-23T18:11:10.777Z,5.24
2022-11-23T18:13:38.226Z,5.15
2022-11-23T18:16:05.924Z,5.33
2022-11-23T18:18:33.159Z,5.36
2022-11-23T18:20:59.753Z,5.23
2022-11-23T18:23:27.320Z,5.39
2022-11-23T18:26:13.328Z,5.38
2022-11-23T18:28:39.807Z,5.23
2022-11-23T18:31:06.547Z,5.24
2022-11-23T18:33:33.123Z,5.00
2022-11-23T18:36:05.133Z,4.81
2022-11-23T18:38:33.281Z,4.70
2022-11-23T18:41:00.234Z,4.70
2022-11-23T18:43:26.898Z,4.70
2022-11-23T18:45:53.739Z,4.68
2022-11-23T18:48:20.289Z,4.80
2022-11-23T18:50:46.832Z,4.93
2022-11-23T18:53:13.266Z,4.86
2022-11-23T18:55:39.999Z,4.90
2022-11-23T18:58:06.989Z,4.86
2022-11-23T19:00:33.666Z,4.84
2022-11-23T19:03:02.132Z,5.08
2022-11-23T19:05:30.635Z,5.07
2022-11-23T19:08:04.209Z,5.12
2022-11-23T19:10:37.540Z,5.07
2022-11-23T19:13:05.928Z,5.12
2022-11-23T19:15:33.297Z,4.90
2022-11-23T19:18:00.002Z,4.89
2022-11-23T19:20:26.483Z,4.73
2022-11-23T19:22:53.197Z,4.67
2022-11-23T19:25:19.780Z,4.67
2022-11-23T19:27:48.777Z,4.59
2022-11-23T19:30:15.608Z,4.73
2022-11-23T19:32:42.058Z,4.53
2022-11-23T19:35:08.923Z,4.39
2022-11-23T19:37:36.665Z,4.41
2022-11-23T19:40:03.630Z,4.27
2022-11-23T19:42:30.450Z,4.23
2022-11-23T19:44:56.908Z,4.27
2022-11-23T19:47:23.426Z,4.20
2022-11-23T19:49:49.863Z,4.13
2022-11-23T19:52:16.317Z,4.17
2022-11-23T19:54:42.863Z,4.38
2022-11-23T19:57:09.387Z,4.26
2022-11-23T19:59:36.186Z,4.23
2022-11-23T20:02:02.766Z,4.20
2022-11-23T20:04:29.719Z,4.22
2022-11-23T20:06:56.446Z,4.17
2022-11-23T20:09:23.947Z,4.26
2022-11-23T20:11:51.464Z,4.21
2022-11-23T20:14:18.422Z,4.21
2022-11-23T20:16:44.901Z,4.20
2022-11-23T20:19:11.683Z,4.18
2022-11-23T20:21:38.471Z,4.11
2022-11-23T20:24:07.945Z,4.21
2022-11-23T20:26:36.347Z,4.21
2022-11-23T20:29:03.850Z,4.26
2022-11-23T20:31:31.911Z,4.28
2022-11-23T20:33:59.426Z,4.19
2022-11-23T20:36:31.593Z,4.23
2022-11-23T20:39:00.942Z,4.33
2022-11-23T20:41:30.359Z,4.18
2022-11-23T20:43:59.298Z,4.10
2022-11-23T20:46:53.654Z,4.06
2022-11-23T20:49:14.024Z,3.98
2022-11-23T20:51:40.506Z,3.93
2022-11-23T20:54:06.980Z,3.97
2022-11-23T20:56:33.435Z,3.88
2022-11-23T20:59:00.293Z,3.98
2022-11-23T21:01:27.857Z,3.87
2022-11-23T21:03:58.209Z,3.93
2022-11-23T21:06:25.599Z,3.86
2022-11-23T21:08:52.812Z,3.84
2022-11-23T21:11:39.484Z,3.91
2022-11-23T21:14:16.927Z,3.85
2022-11-23T21:16:46.202Z,3.74
2022-11-23T21:19:14.167Z,3.73
2022-11-23T21:21:41.011Z,3.74
2022-11-23T21:24:07.862Z,3.77
2022-11-23T21:26:34.695Z,3.68
2022-11-23T21:29:01.519Z,3.69
2022-11-23T21:31:29.946Z,3.74
2022-11-23T21:34:04.929Z,3.68
2022-11-23T21:36:36.234Z,3.59
2022-11-23T21:39:05.393Z,3.72
2022-11-23T21:41:31.871Z,3.76
2022-11-23T21:43:58.877Z,3.69
2022-11-23T21:46:25.922Z,3.69
2022-11-23T21:48:54.550Z,3.75
2022-11-23T21:51:22.094Z,3.60
2022-11-23T21:53:48.987Z,3.58
2022-11-23T21:56:17.268Z,3.48
2022-11-23T21:58:43.967Z,3.50
2022-11-23T22:01:13.453Z,3.56
2022-11-23T22:03:42.150Z,3.57
2022-11-23T22:06:10.047Z,3.60
2022-11-23T22:08:50.185Z,3.56
2022-11-23T22:11:23.041Z,3.68
2022-11-23T22:13:54.746Z,3.55
2022-11-23T22:16:24.151Z,3.61
2022-11-23T22:18:55.604Z,3.56
2022-11-23T22:21:24.960Z,3.67
2022-11-23T22:23:51.641Z,3.78
2022-11-23T22:26:19.643Z,3.73
2022-11-23T22:28:50.762Z,3.67
2022-11-23T22:31:20.631Z,3.78
2022-11-23T22:33:47.670Z,3.86
2022-11-23T22:36:19.168Z,3.86
2022-11-23T22:38:46.194Z,3.82
2022-11-23T22:41:16.005Z,3.75
2022-11-23T22:43:43.087Z,3.70
2022-11-23T22:46:19.897Z,3.69
2022-11-23T22:48:48.407Z,3.71
2022-11-23T22:51:18.059Z,3.66
2022-11-23T22:53:45.138Z,3.73
2022-11-23T22:56:16.702Z,3.61
2022-11-23T22:58:44.553Z,3.74
2022-11-23T23:01:13.667Z,3.77
2022-11-23T23:03:40.991Z,3.81
2022-11-23T23:06:14.380Z,3.77
2022-11-23T23:08:40.791Z,3.87
2022-11-23T23:11:07.694Z,4.01
2022-11-23T23:13:35.276Z,4.00
2022-11-23T23:16:12.950Z,3.93
2022-11-23T23:18:43.272Z,4.07
2022-11-23T23:21:12.638Z,3.97
2022-11-23T23:23:40.936Z,4.05
2022-11-23T23:26:07.753Z,4.03
2022-11-23T23:28:34.443Z,4.12
2022-11-23T23:31:04.998Z,4.15
2022-11-23T23:33:33.236Z,4.11
2022-11-23T23:36:10.048Z,4.17
2022-11-23T23:38:37.273Z,4.20
2022-11-23T23:41:05.619Z,4.19
2022-11-23T23:43:32.246Z,4.31
2022-11-23T23:46:00.939Z,4.20
2022-11-23T23:48:33.575Z,4.22
2022-11-23T23:51:11.612Z,4.23
2022-11-23T23:53:39.034Z,4.32
2022-11-23T23:56:08.278Z,4.21
2022-11-23T23:58:35.425Z,4.25
